createdAt,value
2022-12-23T00:00:20.376Z,98131.16
2022-12-23T00:03:23.821Z,98125.75
2022-12-23T00:06:26.740Z,98123.97
2022-12-23T00:09:29.943Z,98122.16
2022-12-23T00:12:51.113Z,98123.03
2022-12-23T00:16:07.316Z,98130.12
2022-12-23T00:19:10.780Z,98142.50
2022-12-23T00:22:13.832Z,98141.63
2022-12-23T00:25:16.823Z,98149.56
2022-12-23T00:28:22.671Z,98149.53
2022-12-23T00:31:25.872Z,98160.19
2022-12-23T00:34:28.966Z,98146.03
2022-12-23T00:37:31.470Z,98144.13
2022-12-23T00:40:53.748Z,98145.84
2022-12-23T00:43:56.451Z,98144.09
2022-12-23T00:46:59.534Z,98142.31
2022-12-23T00:50:02.169Z,98141.44
2022-12-23T00:53:05.957Z,98128.09
2022-12-23T00:56:08.577Z,98127.22
2022-12-23T00:59:11.613Z,98120.13
2022-12-23T01:02:32.577Z,98121.94
2022-12-23T01:05:38.888Z,98133.47
2022-12-23T01:08:41.626Z,98137.94
2022-12-23T01:11:44.508Z,98141.47
2022-12-23T01:14:47.151Z,98138.81
2022-12-23T01:17:50.009Z,98130.81
2022-12-23T01:20:52.608Z,98136.13
2022-12-23T01:23:55.545Z,98137.84
2022-12-23T01:26:58.449Z,98134.34
2022-12-23T01:30:01.324Z,98135.25
2022-12-23T01:33:04.015Z,98131.72
2022-12-23T01:36:08.454Z,98125.56
2022-12-23T01:39:11.076Z,98124.69
2022-12-23T01:42:34.531Z,98118.56
2022-12-23T01:45:37.502Z,98130.97
2022-12-23T01:48:41.991Z,98122.09
2022-12-23T01:51:44.649Z,98113.22
2022-12-23T01:54:48.045Z,98110.59
2022-12-23T01:57:52.300Z,98097.44
2022-12-23T02:01:15.947Z,98081.56
2022-12-23T02:04:22.120Z,98100.84
2022-12-23T02:07:43.256Z,98092.94
2022-12-23T02:11:19.933Z,98096.50
2022-12-23T02:15:31.163Z,98089.44
2022-12-23T02:18:46.289Z,98094.69
2022-12-23T02:21:51.875Z,98083.19
2022-12-23T02:24:57.631Z,98086.69
2022-12-23T02:28:20.408Z,98081.41
2022-12-23T02:31:29.920Z,98087.66
2022-12-23T02:34:51.816Z,98086.81
2022-12-23T02:38:13.895Z,98071.84
2022-12-23T02:41:31.615Z,98090.41
2022-12-23T02:44:45.134Z,98093.09
2022-12-23T02:48:05.531Z,98089.53
2022-12-23T02:51:09.224Z,98079.81
2022-12-23T02:54:24.141Z,98077.16
2022-12-23T02:57:34.945Z,98078.13
2022-12-23T03:00:38.778Z,98065.72
2022-12-23T03:03:41.827Z,98065.75
2022-12-23T03:06:50.050Z,98067.56
2022-12-23T03:10:09.114Z,98054.25
2022-12-23T03:13:30.505Z,98052.47
2022-12-23T03:17:01.219Z,98046.31
2022-12-23T03:20:12.787Z,98046.31
2022-12-23T03:23:16.770Z,98043.69
2022-12-23T03:26:23.274Z,98049.00
2022-12-23T03:29:39.166Z,98042.84
2022-12-23T03:32:59.736Z,98034.16
2022-12-23T03:36:07.666Z,98052.59
2022-12-23T03:39:14.620Z,98052.59
2022-12-23T03:42:33.913Z,98022.75
2022-12-23T03:45:41.724Z,98035.81
2022-12-23T03:48:52.563Z,98041.97
2022-12-23T03:52:08.090Z,98034.91
2022-12-23T03:55:17.378Z,98042.84
2022-12-23T03:58:56.556Z,97970.97
2022-12-23T04:02:02.649Z,98041.97
2022-12-23T04:05:42.830Z,98055.25
2022-12-23T04:08:46.559Z,98045.53
2022-12-23T04:11:49.796Z,98042.00
2022-12-23T04:14:52.352Z,98043.78
2022-12-23T04:17:56.841Z,98048.22
2022-12-23T04:21:01.066Z,98041.16
2022-12-23T04:24:03.940Z,98038.47
2022-12-23T04:27:08.023Z,98024.34
2022-12-23T04:30:14.025Z,98027.03
2022-12-23T04:33:16.873Z,98030.53
2022-12-23T04:36:20.080Z,98019.03
2022-12-23T04:39:25.759Z,98026.06
2022-12-23T04:42:29.457Z,98025.22
2022-12-23T04:45:32.706Z,97980.50
2022-12-23T04:48:36.260Z,98019.06
2022-12-23T04:51:38.745Z,98014.66
2022-12-23T04:54:45.913Z,98016.53
2022-12-23T04:57:49.244Z,98026.34
2022-12-23T05:01:08.378Z,98034.41
2022-12-23T05:04:10.987Z,98033.56
2022-12-23T05:07:14.101Z,98023.88
2022-12-23T05:10:16.884Z,98030.09
2022-12-23T05:13:20.237Z,98023.09
2022-12-23T05:16:23.152Z,98036.38
2022-12-23T05:19:26.680Z,98038.22
2022-12-23T05:22:29.337Z,98028.53
2022-12-23T05:25:34.058Z,98032.97
2022-12-23T05:28:36.666Z,98026.00
2022-12-23T05:31:39.553Z,98046.22
2022-12-23T05:34:42.163Z,98044.44
2022-12-23T05:37:44.990Z,98055.91
2022-12-23T05:40:49.928Z,98057.69
2022-12-23T05:43:52.856Z,98065.66
2022-12-23T05:46:55.488Z,98051.53
2022-12-23T05:49:58.316Z,98033.09
2022-12-23T05:53:00.945Z,98044.53
2022-12-23T05:56:05.940Z,98040.09
2022-12-23T05:59:08.457Z,98055.16
2022-12-23T06:02:11.540Z,98056.94
2022-12-23T06:05:14.759Z,98053.44
2022-12-23T06:08:20.546Z,98034.09
2022-12-23T06:11:23.409Z,98051.69
2022-12-23T06:14:28.986Z,98060.53
2022-12-23T06:17:32.978Z,98066.72
2022-12-23T06:20:36.485Z,98064.94
2022-12-23T06:23:39.672Z,98063.19
2022-12-23T06:26:42.345Z,98077.34
2022-12-23T06:29:45.630Z,98079.13
2022-12-23T06:32:48.234Z,98080.03
2022-12-23T06:35:51.161Z,98053.59
2022-12-23T06:38:53.888Z,98076.44
2022-12-23T06:41:56.946Z,98072.94
2022-12-23T06:44:59.524Z,98078.25
2022-12-23T06:48:02.888Z,98083.56
2022-12-23T06:51:05.905Z,98066.81
2022-12-23T06:54:11.597Z,98068.62
2022-12-23T06:57:14.297Z,98070.41
2022-12-23T07:00:19.035Z,98062.47
2022-12-23T07:03:21.784Z,98060.69
2022-12-23T07:06:25.051Z,98063.31
2022-12-23T07:09:27.869Z,98072.19
2022-12-23T07:12:30.947Z,98067.78
2022-12-23T07:15:33.578Z,98053.69
2022-12-23T07:18:36.900Z,98073.03
2022-12-23T07:21:39.474Z,98071.25
2022-12-23T07:24:42.397Z,98067.69
2022-12-23T07:27:45.044Z,98060.66
2022-12-23T07:30:50.490Z,98065.87
2022-12-23T07:33:53.201Z,98072.97
2022-12-23T07:36:56.202Z,98033.44
2022-12-23T07:40:02.148Z,98065.97
2022-12-23T07:43:09.468Z,98085.34
2022-12-23T07:46:12.090Z,98106.47
2022-12-23T07:49:15.099Z,98115.28
2022-12-23T07:52:18.188Z,98125.87
2022-12-23T07:55:21.244Z,98123.22
2022-12-23T07:58:24.237Z,98111.69
2022-12-23T08:01:27.179Z,98111.75
2022-12-23T08:04:30.395Z,98098.50
2022-12-23T08:07:33.016Z,98083.47
2022-12-23T08:10:36.149Z,98082.53
2022-12-23T08:13:40.306Z,98083.44
2022-12-23T08:16:44.335Z,98079.87
2022-12-23T08:19:48.331Z,98079.00
2022-12-23T08:22:51.122Z,98073.69
2022-12-23T08:26:06.315Z,98064.81
2022-12-23T08:29:10.875Z,98055.06
2022-12-23T08:32:13.350Z,98051.53
2022-12-23T08:35:16.159Z,98041.81
2022-12-23T08:38:18.809Z,98049.69
2022-12-23T08:41:25.769Z,98046.94
2022-12-23T08:44:28.783Z,98039.81
2022-12-23T08:47:31.789Z,98051.28
2022-12-23T08:50:42.661Z,98042.37
2022-12-23T08:53:47.204Z,98053.00
2022-12-23T08:56:49.754Z,98035.25
2022-12-23T08:59:52.545Z,98033.53
2022-12-23T09:02:55.188Z,98025.50
2022-12-23T09:05:58.165Z,98036.97
2022-12-23T09:09:00.685Z,98038.72
2022-12-23T09:12:04.522Z,98045.81
2022-12-23T09:15:07.658Z,98036.97
2022-12-23T09:18:11.483Z,98008.78
2022-12-23T09:21:18.588Z,98000.72
2022-12-23T09:24:21.433Z,97998.84
2022-12-23T09:27:24.046Z,98005.81
2022-12-23T09:30:28.116Z,98017.13
2022-12-23T09:33:31.434Z,98022.28
2022-12-23T09:36:34.466Z,98024.88
2022-12-23T09:39:37.038Z,98027.50
2022-12-23T09:43:09.123Z,98016.09
2022-12-23T09:46:22.089Z,97974.00
2022-12-23T09:49:25.107Z,98033.72
2022-12-23T09:52:40.780Z,98026.59
2022-12-23T09:55:55.525Z,98021.28
2022-12-23T09:59:39.641Z,98021.19
2022-12-23T10:03:01.511Z,98017.78
2022-12-23T10:06:13.385Z,98016.03
2022-12-23T10:09:17.524Z,97997.47
2022-12-23T10:12:39.385Z,97997.47
2022-12-23T10:15:48.509Z,97996.72
2022-12-23T10:19:04.766Z,97978.16
2022-12-23T10:22:13.224Z,97979.75
2022-12-23T10:25:18.451Z,97970.84
2022-12-23T10:28:21.481Z,97951.34
2022-12-23T10:31:40.786Z,97960.94
2022-12-23T10:35:21.750Z,97957.28
2022-12-23T10:38:30.321Z,97966.87
2022-12-23T10:41:32.777Z,97969.47
2022-12-23T10:44:49.642Z,97963.28
2022-12-23T10:48:07.416Z,97959.75
2022-12-23T10:51:19.327Z,97944.66
2022-12-23T10:54:33.984Z,97943.66
2022-12-23T10:57:36.935Z,97944.53
2022-12-23T11:00:45.706Z,97928.84
2022-12-23T11:03:58.184Z,97930.56
2022-12-23T11:07:34.247Z,97930.84
2022-12-23T11:10:32.982Z,97929.94
2022-12-23T11:13:39.109Z,97930.03
2022-12-23T11:16:45.732Z,97919.50
2022-12-23T11:20:09.148Z,97925.81
2022-12-23T11:23:36.639Z,97924.09
2022-12-23T11:26:39.525Z,97936.50
2022-12-23T11:29:49.341Z,97928.56
2022-12-23T11:32:52.553Z,97921.47
2022-12-23T11:36:04.765Z,97914.50
2022-12-23T11:39:10.377Z,97928.47
2022-12-23T11:42:18.711Z,97938.25
2022-12-23T11:45:23.678Z,97939.09
2022-12-23T11:48:28.953Z,97904.16
2022-12-23T11:51:31.570Z,97956.78
2022-12-23T11:54:34.415Z,97959.41
2022-12-23T11:57:43.476Z,97962.09
2022-12-23T12:00:56.112Z,97962.09
2022-12-23T12:04:04.606Z,97969.22
2022-12-23T12:07:07.428Z,97965.72
2022-12-23T12:10:19.937Z,97962.22
2022-12-23T12:13:40.248Z,97922.78
2022-12-23T12:16:56.050Z,97972.84
2022-12-23T12:20:18.100Z,97958.59
2022-12-23T12:23:27.623Z,97963.06
2022-12-23T12:26:32.502Z,97952.44
2022-12-23T12:29:47.590Z,97965.75
2022-12-23T12:33:05.218Z,97968.38
2022-12-23T12:36:28.236Z,97963.00
2022-12-23T12:39:46.033Z,97955.09
2022-12-23T12:42:59.996Z,97957.75
2022-12-23T12:46:21.540Z,97942.81
2022-12-23T12:49:43.608Z,97946.16
2022-12-23T12:52:46.225Z,97946.13
2022-12-23T12:55:55.183Z,97958.50
2022-12-23T12:58:58.274Z,97951.44
2022-12-23T13:02:23.201Z,97948.94
2022-12-23T13:06:01.007Z,97958.69
2022-12-23T13:09:16.580Z,97954.31
2022-12-23T13:12:53.963Z,97949.91
2022-12-23T13:16:21.780Z,97949.00
2022-12-23T13:20:12.842Z,97964.94
2022-12-23T13:23:43.056Z,97973.81
2022-12-23T13:26:59.236Z,97964.06
2022-12-23T13:30:17.784Z,97965.84
2022-12-23T13:33:29.906Z,97970.22
2022-12-23T13:36:51.002Z,97968.50
2022-12-23T13:40:19.364Z,97970.28
2022-12-23T13:43:23.313Z,97970.28
2022-12-23T13:46:25.992Z,97973.84
2022-12-23T13:49:44.070Z,97974.75
2022-12-23T13:53:17.613Z,97971.19
2022-12-23T13:56:29.590Z,97975.56
2022-12-23T13:59:44.163Z,97980.87
2022-12-23T14:02:50.204Z,97973.81
2022-12-23T14:05:53.465Z,97970.28
2022-12-23T14:08:56.222Z,97980.06
2022-12-23T14:12:10.185Z,97973.00
2022-12-23T14:15:22.048Z,97968.56
2022-12-23T14:18:44.211Z,97971.22
2022-12-23T14:22:05.309Z,97977.41
2022-12-23T14:25:20.382Z,97977.41
2022-12-23T14:28:39.577Z,97967.69
2022-12-23T14:31:44.999Z,97971.22
2022-12-23T14:35:16.390Z,97975.66
2022-12-23T14:38:27.639Z,97967.72
2022-12-23T14:41:38.850Z,97983.63
2022-12-23T14:44:45.847Z,97983.66
2022-12-23T14:47:48.421Z,97988.03
2022-12-23T14:50:59.682Z,97988.03
2022-12-23T14:54:02.306Z,97993.34
2022-12-23T14:57:08.232Z,97991.63
2022-12-23T15:00:10.907Z,97993.34
2022-12-23T15:03:13.926Z,97992.47
2022-12-23T15:06:29.638Z,97981.00
2022-12-23T15:09:36.997Z,97988.97
2022-12-23T15:12:43.151Z,97997.81
2022-12-23T15:16:00.673Z,97992.53
2022-12-23T15:19:23.056Z,97990.72
2022-12-23T15:22:32.593Z,98005.81
2022-12-23T15:25:39.940Z,97969.91
2022-12-23T15:28:42.956Z,98016.44
2022-12-23T15:31:48.955Z,98028.81
2022-12-23T15:34:52.728Z,98017.31
2022-12-23T15:37:56.440Z,98013.78
2022-12-23T15:41:05.596Z,98005.84
2022-12-23T15:44:12.731Z,97998.91
2022-12-23T15:47:24.791Z,98020.03
2022-12-23T15:50:29.522Z,98023.56
2022-12-23T15:53:35.211Z,98020.91
2022-12-23T15:56:39.167Z,98001.56
2022-12-23T15:59:41.943Z,98016.47
2022-12-23T16:03:03.780Z,98016.47
2022-12-23T16:06:16.690Z,98026.19
2022-12-23T16:09:19.288Z,98011.19
2022-12-23T16:12:24.494Z,97995.25
2022-12-23T16:15:29.707Z,97998.81
2022-12-23T16:18:47.029Z,97998.81
2022-12-23T16:21:50.561Z,97997.09
2022-12-23T16:25:12.541Z,97995.31
2022-12-23T16:28:21.605Z,97975.88
2022-12-23T16:31:24.887Z,97978.56
2022-12-23T16:34:30.708Z,97980.34
2022-12-23T16:37:33.526Z,97973.28
2022-12-23T16:40:36.870Z,97974.19
2022-12-23T16:43:40.728Z,97975.94
2022-12-23T16:46:48.878Z,97983.06
2022-12-23T16:49:51.698Z,97986.66
2022-12-23T16:52:54.273Z,97990.16
2022-12-23T16:56:00.913Z,97984.00
2022-12-23T16:59:04.735Z,97992.81
2022-12-23T17:02:18.878Z,97983.13
2022-12-23T17:05:22.765Z,97992.84
2022-12-23T17:08:25.644Z,97970.91
2022-12-23T17:11:41.239Z,97989.41
2022-12-23T17:14:44.687Z,97993.81
2022-12-23T17:17:48.477Z,97992.12
2022-12-23T17:20:51.810Z,97993.06
2022-12-23T17:23:56.814Z,97994.88
2022-12-23T17:26:59.629Z,97985.16
2022-12-23T17:30:02.217Z,97984.31
2022-12-23T17:33:05.598Z,97977.25
2022-12-23T17:36:09.639Z,97980.84
2022-12-23T17:39:12.825Z,97985.16
2022-12-23T17:42:25.250Z,97988.72
2022-12-23T17:45:30.927Z,97987.81
2022-12-23T17:48:33.541Z,97978.16
2022-12-23T17:51:36.615Z,97929.06
2022-12-23T17:54:39.943Z,97978.28
2022-12-23T17:57:42.749Z,97956.28
2022-12-23T18:00:47.523Z,97966.84
2022-12-23T18:03:51.800Z,97970.38
2022-12-23T18:06:54.272Z,97974.78
2022-12-23T18:09:57.320Z,97978.72
2022-12-23T18:13:06.110Z,97994.28
2022-12-23T18:16:11.419Z,97994.50
2022-12-23T18:19:19.793Z,98000.81
2022-12-23T18:22:24.065Z,97996.53
2022-12-23T18:25:27.528Z,97985.97
2022-12-23T18:28:30.452Z,97982.53
2022-12-23T18:31:33.334Z,97986.09
2022-12-23T18:34:36.175Z,97979.94
2022-12-23T18:37:38.722Z,97969.34
2022-12-23T18:40:42.714Z,97972.94
2022-12-23T18:43:46.584Z,97966.72
2022-12-23T18:46:50.396Z,97972.06
2022-12-23T18:49:53.380Z,97979.16
2022-12-23T18:52:58.021Z,97981.84
2022-12-23T18:56:01.259Z,97981.87
2022-12-23T18:59:04.493Z,97972.28
2022-12-23T19:02:10.477Z,97981.06
2022-12-23T19:05:36.901Z,97982.91
2022-12-23T19:08:40.439Z,97984.66
2022-12-23T19:11:43.552Z,97997.03
2022-12-23T19:14:46.564Z,97992.69
2022-12-23T19:17:50.709Z,97999.78
2022-12-23T19:20:56.429Z,97985.72
2022-12-23T19:24:00.312Z,97984.84
2022-12-23T19:27:03.227Z,97987.38
2022-12-23T19:30:13.941Z,97994.44
2022-12-23T19:33:19.248Z,97980.28
2022-12-23T19:36:23.108Z,97975.88
2022-12-23T19:39:31.094Z,97955.66
2022-12-23T19:42:34.674Z,97971.56
2022-12-23T19:45:37.607Z,97962.75
2022-12-23T19:48:40.668Z,97982.19
2022-12-23T19:51:43.611Z,98002.56
2022-12-23T19:54:47.505Z,98006.94
2022-12-23T19:57:50.065Z,98006.03
2022-12-23T20:00:53.853Z,98007.75
2022-12-23T20:03:57.124Z,98010.53
2022-12-23T20:06:59.931Z,98020.16
2022-12-23T20:10:05.025Z,98015.75
2022-12-23T20:13:09.399Z,98043.97
2022-12-23T20:16:16.606Z,98027.16
2022-12-23T20:19:19.855Z,98016.66
2022-12-23T20:22:24.000Z,98025.47
2022-12-23T20:25:27.086Z,98032.56
2022-12-23T20:28:32.015Z,98013.09
2022-12-23T20:31:37.657Z,98007.81
2022-12-23T20:34:41.886Z,98002.56
2022-12-23T20:37:46.217Z,98006.06
2022-12-23T20:40:55.228Z,98016.69
2022-12-23T20:47:21.620Z,98022.91
2022-12-23T20:50:25.310Z,98002.72
2022-12-23T20:53:30.664Z,98022.91
2022-12-23T20:56:36.516Z,98021.16
2022-12-23T20:59:40.223Z,98013.19
2022-12-23T21:02:43.336Z,98004.37
2022-12-23T21:05:46.620Z,98002.66
2022-12-23T21:08:52.920Z,98004.37
2022-12-23T21:11:56.183Z,97981.47
2022-12-23T21:14:59.772Z,97991.13
2022-12-23T21:18:03.235Z,97977.00
2022-12-23T21:21:06.071Z,97983.19
2022-12-23T21:24:09.781Z,97982.34
2022-12-23T21:27:12.346Z,97979.66
2022-12-23T21:30:15.552Z,97975.25
2022-12-23T21:33:18.342Z,97963.75
2022-12-23T21:36:23.430Z,97968.13
2022-12-23T21:39:26.868Z,97965.53
2022-12-23T21:42:29.650Z,97952.19
2022-12-23T21:45:32.839Z,97953.06
2022-12-23T21:48:36.622Z,97958.37
2022-12-23T21:51:41.049Z,97960.16
2022-12-23T21:54:44.358Z,97947.75
2022-12-23T21:57:47.343Z,97943.34
2022-12-23T22:00:50.449Z,97938.00
2022-12-23T22:03:54.065Z,97936.22
2022-12-23T22:06:56.614Z,97930.03
2022-12-23T22:09:59.469Z,97931.78
2022-12-23T22:13:02.228Z,97914.25
2022-12-23T22:16:09.578Z,97904.44
2022-12-23T22:19:13.081Z,97897.28
2022-12-23T22:22:16.025Z,97899.00
2022-12-23T22:25:18.705Z,97885.69
2022-12-23T22:28:22.076Z,97884.72
2022-12-23T22:31:31.861Z,97871.38
2022-12-23T22:34:34.647Z,97866.00
2022-12-23T22:37:37.376Z,97851.78
2022-12-23T22:40:40.462Z,97847.31
2022-12-23T22:43:42.994Z,97851.75
2022-12-23T22:46:45.914Z,97850.09
2022-12-23T22:49:48.889Z,97856.38
2022-12-23T22:52:51.913Z,97858.22
2022-12-23T22:55:59.165Z,97870.75
2022-12-23T22:59:02.317Z,97872.47
2022-12-23T23:02:05.201Z,97874.25
2022-12-23T23:05:12.917Z,97845.22
2022-12-23T23:08:15.936Z,97850.38
2022-12-23T23:11:19.446Z,97841.56
2022-12-23T23:14:22.361Z,97837.06
2022-12-23T23:17:27.314Z,97835.28
2022-12-23T23:20:30.052Z,97839.62
2022-12-23T23:23:33.661Z,97832.62
2022-12-23T23:26:36.328Z,97837.78
2022-12-23T23:29:39.659Z,97845.75
2022-12-23T23:32:42.200Z,97857.22
2022-12-23T23:35:45.108Z,97843.28
2022-12-23T23:39:32.643Z,97868.50
2022-12-23T23:42:35.896Z,97868.50
2022-12-23T23:45:39.886Z,97887.28
2022-12-23T23:48:42.731Z,97897.91
2022-12-23T23:51:45.453Z,97904.13
2022-12-23T23:54:48.561Z,97887.28
2022-12-23T23:57:51.284Z,97892.59
